sensor_id;sensor_type;location;lat;lon;timestamp;P1;durP1;ratioP1;P2;durP2;ratioP2
32838;SDS011;19182;41.820;12.808;2022-10-16T00:01:24;17.35;;;11.60;;
32838;SDS011;19182;41.820;12.808;2022-10-16T00:06:20;19.70;;;12.65;;
32838;SDS011;19182;41.820;12.808;2022-10-16T00:08:48;19.88;;;12.15;;
32838;SDS011;19182;41.820;12.808;2022-10-16T00:11:17;18.10;;;11.68;;
32838;SDS011;19182;41.820;12.808;2022-10-16T00:13:47;18.98;;;11.80;;
32838;SDS011;19182;41.820;12.808;2022-10-16T00:16:15;20.83;;;11.65;;
32838;SDS011;19182;41.820;12.808;2022-10-16T00:18:42;15.98;;;11.10;;
32838;SDS011;19182;41.820;12.808;2022-10-16T00:21:12;24.27;;;11.57;;
32838;SDS011;19182;41.820;12.808;2022-10-16T00:23:44;17.55;;;11.38;;
32838;SDS011;19182;41.820;12.808;2022-10-16T00:26:12;19.33;;;11.30;;
32838;SDS011;19182;41.820;12.808;2022-10-16T00:28:39;20.08;;;11.75;;
32838;SDS011;19182;41.820;12.808;2022-10-16T00:31:11;20.63;;;11.00;;
32838;SDS011;19182;41.820;12.808;2022-10-16T00:33:38;21.00;;;11.38;;
32838;SDS011;19182;41.820;12.808;2022-10-16T00:36:05;20.65;;;12.27;;
32838;SDS011;19182;41.820;12.808;2022-10-16T00:38:32;17.90;;;10.40;;
32838;SDS011;19182;41.820;12.808;2022-10-16T00:40:58;21.13;;;10.45;;
32838;SDS011;19182;41.820;12.808;2022-10-16T00:46:10;25.92;;;11.45;;
32838;SDS011;19182;41.820;12.808;2022-10-16T00:48:57;19.42;;;11.27;;
32838;SDS011;19182;41.820;12.808;2022-10-16T00:53:57;25.98;;;11.13;;
32838;SDS011;19182;41.820;12.808;2022-10-16T00:56:25;17.95;;;9.93;;
32838;SDS011;19182;41.820;12.808;2022-10-16T00:58:50;17.90;;;10.50;;
32838;SDS011;19182;41.820;12.808;2022-10-16T01:01:17;16.63;;;9.35;;
32838;SDS011;19182;41.820;12.808;2022-10-16T01:03:42;15.77;;;9.00;;
32838;SDS011;19182;41.820;12.808;2022-10-16T01:11:27;15.18;;;9.50;;
32838;SDS011;19182;41.820;12.808;2022-10-16T01:14:00;17.60;;;9.07;;
32838;SDS011;19182;41.820;12.808;2022-10-16T01:19:28;15.13;;;10.10;;
32838;SDS011;19182;41.820;12.808;2022-10-16T01:22:03;18.45;;;8.65;;
32838;SDS011;19182;41.820;12.808;2022-10-16T01:24:33;14.43;;;8.80;;
32838;SDS011;19182;41.820;12.808;2022-10-16T01:30:04;15.93;;;9.95;;
32838;SDS011;19182;41.820;12.808;2022-10-16T01:32:39;14.15;;;10.05;;
32838;SDS011;19182;41.820;12.808;2022-10-16T01:35:14;15.45;;;9.70;;
32838;SDS011;19182;41.820;12.808;2022-10-16T01:40:32;17.65;;;13.48;;
32838;SDS011;19182;41.820;12.808;2022-10-16T01:43:05;17.60;;;11.43;;
32838;SDS011;19182;41.820;12.808;2022-10-16T01:45:35;26.60;;;16.02;;
32838;SDS011;19182;41.820;12.808;2022-10-16T01:48:03;26.05;;;18.40;;
32838;SDS011;19182;41.820;12.808;2022-10-16T01:53:00;28.13;;;17.88;;
32838;SDS011;19182;41.820;12.808;2022-10-16T01:55:32;22.98;;;14.93;;
32838;SDS011;19182;41.820;12.808;2022-10-16T01:58:02;19.35;;;13.63;;
32838;SDS011;19182;41.820;12.808;2022-10-16T02:00:30;19.10;;;12.75;;
32838;SDS011;19182;41.820;12.808;2022-10-16T02:02:56;20.85;;;12.25;;
32838;SDS011;19182;41.820;12.808;2022-10-16T02:05:30;15.33;;;10.70;;
32838;SDS011;19182;41.820;12.808;2022-10-16T02:07:59;21.63;;;12.27;;
32838;SDS011;19182;41.820;12.808;2022-10-16T02:10:28;18.67;;;10.93;;
32838;SDS011;19182;41.820;12.808;2022-10-16T02:13:00;16.85;;;10.45;;
32838;SDS011;19182;41.820;12.808;2022-10-16T02:15:47;19.48;;;10.93;;
32838;SDS011;19182;41.820;12.808;2022-10-16T02:18:14;17.23;;;11.30;;
32838;SDS011;19182;41.820;12.808;2022-10-16T02:20:49;15.18;;;10.52;;
32838;SDS011;19182;41.820;12.808;2022-10-16T02:23:26;13.52;;;10.43;;
32838;SDS011;19182;41.820;12.808;2022-10-16T02:26:09;20.13;;;10.52;;
32838;SDS011;19182;41.820;12.808;2022-10-16T02:31:27;16.38;;;10.63;;
32838;SDS011;19182;41.820;12.808;2022-10-16T02:33:56;14.07;;;9.18;;
32838;SDS011;19182;41.820;12.808;2022-10-16T02:36:23;16.73;;;9.75;;
32838;SDS011;19182;41.820;12.808;2022-10-16T02:38:52;18.73;;;9.23;;
32838;SDS011;19182;41.820;12.808;2022-10-16T02:41:20;14.18;;;9.02;;
32838;SDS011;19182;41.820;12.808;2022-10-16T02:43:46;14.68;;;8.68;;
32838;SDS011;19182;41.820;12.808;2022-10-16T02:46:13;14.85;;;9.18;;
32838;SDS011;19182;41.820;12.808;2022-10-16T02:48:40;19.10;;;9.20;;
32838;SDS011;19182;41.820;12.808;2022-10-16T02:51:06;11.25;;;8.82;;
32838;SDS011;19182;41.820;12.808;2022-10-16T02:53:31;13.93;;;8.98;;
32838;SDS011;19182;41.820;12.808;2022-10-16T02:55:57;15.55;;;8.80;;
32838;SDS011;19182;41.820;12.808;2022-10-16T02:58:23;13.38;;;8.40;;
32838;SDS011;19182;41.820;12.808;2022-10-16T03:00:50;15.90;;;7.28;;
32838;SDS011;19182;41.820;12.808;2022-10-16T03:03:17;13.95;;;7.68;;
32838;SDS011;19182;41.820;12.808;2022-10-16T03:05:43;19.08;;;7.60;;
32838;SDS011;19182;41.820;12.808;2022-10-16T03:08:12;12.97;;;8.20;;
32838;SDS011;19182;41.820;12.808;2022-10-16T03:10:38;11.07;;;7.68;;
32838;SDS011;19182;41.820;12.808;2022-10-16T03:13:04;13.48;;;8.38;;
32838;SDS011;19182;41.820;12.808;2022-10-16T03:15:31;13.35;;;7.15;;
32838;SDS011;19182;41.820;12.808;2022-10-16T03:17:57;11.45;;;7.68;;
32838;SDS011;19182;41.820;12.808;2022-10-16T03:20:24;11.75;;;7.38;;
32838;SDS011;19182;41.820;12.808;2022-10-16T03:22:51;14.63;;;7.88;;
32838;SDS011;19182;41.820;12.808;2022-10-16T03:25:17;9.88;;;6.95;;
32838;SDS011;19182;41.820;12.808;2022-10-16T03:27:43;14.35;;;7.82;;
32838;SDS011;19182;41.820;12.808;2022-10-16T03:30:09;18.13;;;6.80;;
32838;SDS011;19182;41.820;12.808;2022-10-16T03:32:35;10.05;;;6.57;;
32838;SDS011;19182;41.820;12.808;2022-10-16T03:35:02;12.35;;;7.47;;
32838;SDS011;19182;41.820;12.808;2022-10-16T03:37:29;12.85;;;7.32;;
32838;SDS011;19182;41.820;12.808;2022-10-16T03:39:55;12.40;;;7.32;;
32838;SDS011;19182;41.820;12.808;2022-10-16T03:42:21;11.75;;;6.55;;
32838;SDS011;19182;41.820;12.808;2022-10-16T03:44:46;12.25;;;7.05;;
32838;SDS011;19182;41.820;12.808;2022-10-16T03:47:13;16.40;;;6.82;;
32838;SDS011;19182;41.820;12.808;2022-10-16T03:49:39;11.68;;;6.53;;
32838;SDS011;19182;41.820;12.808;2022-10-16T03:52:05;11.68;;;6.50;;
32838;SDS011;19182;41.820;12.808;2022-10-16T03:54:31;7.15;;;5.80;;
32838;SDS011;19182;41.820;12.808;2022-10-16T03:56:56;8.57;;;5.85;;
32838;SDS011;19182;41.820;12.808;2022-10-16T03:59:22;10.43;;;5.45;;
32838;SDS011;19182;41.820;12.808;2022-10-16T04:01:48;8.27;;;5.93;;
32838;SDS011;19182;41.820;12.808;2022-10-16T04:04:14;18.80;;;5.70;;
32838;SDS011;19182;41.820;12.808;2022-10-16T04:06:41;10.65;;;5.85;;
32838;SDS011;19182;41.820;12.808;2022-10-16T04:09:07;8.68;;;4.68;;
32838;SDS011;19182;41.820;12.808;2022-10-16T04:11:33;7.53;;;4.88;;
32838;SDS011;19182;41.820;12.808;2022-10-16T04:13:59;9.07;;;5.10;;
32838;SDS011;19182;41.820;12.808;2022-10-16T04:16:26;6.80;;;5.40;;
32838;SDS011;19182;41.820;12.808;2022-10-16T04:18:51;8.93;;;4.93;;
32838;SDS011;19182;41.820;12.808;2022-10-16T04:21:17;6.80;;;4.50;;
32838;SDS011;19182;41.820;12.808;2022-10-16T04:23:43;7.80;;;5.03;;
32838;SDS011;19182;41.820;12.808;2022-10-16T04:26:09;11.60;;;4.90;;
32838;SDS011;19182;41.820;12.808;2022-10-16T04:28:36;6.63;;;4.15;;
32838;SDS011;19182;41.820;12.808;2022-10-16T04:31:05;8.18;;;4.72;;
32838;SDS011;19182;41.820;12.808;2022-10-16T04:33:32;6.35;;;4.40;;
32838;SDS011;19182;41.820;12.808;2022-10-16T04:35:59;6.70;;;4.00;;
32838;SDS011;19182;41.820;12.808;2022-10-16T04:38:26;8.57;;;4.63;;
32838;SDS011;19182;41.820;12.808;2022-10-16T04:40:53;10.45;;;4.85;;
32838;SDS011;19182;41.820;12.808;2022-10-16T04:43:19;13.00;;;4.75;;
32838;SDS011;19182;41.820;12.808;2022-10-16T04:45:46;5.90;;;4.18;;
32838;SDS011;19182;41.820;12.808;2022-10-16T04:48:15;14.27;;;5.18;;
32838;SDS011;19182;41.820;12.808;2022-10-16T04:50:42;10.57;;;4.93;;
32838;SDS011;19182;41.820;12.808;2022-10-16T04:53:08;9.07;;;4.60;;
32838;SDS011;19182;41.820;12.808;2022-10-16T04:55:34;9.63;;;4.07;;
32838;SDS011;19182;41.820;12.808;2022-10-16T04:58:00;7.40;;;4.20;;
32838;SDS011;19182;41.820;12.808;2022-10-16T05:00:26;6.00;;;4.00;;
32838;SDS011;19182;41.820;12.808;2022-10-16T05:02:52;7.88;;;4.65;;
32838;SDS011;19182;41.820;12.808;2022-10-16T05:05:18;5.80;;;3.95;;
32838;SDS011;19182;41.820;12.808;2022-10-16T05:07:45;12.35;;;4.80;;
32838;SDS011;19182;41.820;12.808;2022-10-16T05:10:12;9.07;;;4.95;;
32838;SDS011;19182;41.820;12.808;2022-10-16T05:12:38;10.38;;;4.40;;
32838;SDS011;19182;41.820;12.808;2022-10-16T05:15:03;4.55;;;3.80;;
32838;SDS011;19182;41.820;12.808;2022-10-16T05:17:29;10.65;;;4.35;;
32838;SDS011;19182;41.820;12.808;2022-10-16T05:19:56;9.73;;;4.32;;
32838;SDS011;19182;41.820;12.808;2022-10-16T05:22:21;12.02;;;4.28;;
32838;SDS011;19182;41.820;12.808;2022-10-16T05:24:47;6.95;;;4.35;;
32838;SDS011;19182;41.820;12.808;2022-10-16T05:27:13;10.05;;;3.40;;
32838;SDS011;19182;41.820;12.808;2022-10-16T05:29:44;10.35;;;4.18;;
32838;SDS011;19182;41.820;12.808;2022-10-16T05:32:11;4.82;;;3.25;;
32838;SDS011;19182;41.820;12.808;2022-10-16T05:34:37;6.82;;;4.22;;
32838;SDS011;19182;41.820;12.808;2022-10-16T05:37:04;11.35;;;4.13;;
32838;SDS011;19182;41.820;12.808;2022-10-16T05:39:30;8.25;;;3.90;;
32838;SDS011;19182;41.820;12.808;2022-10-16T05:41:56;7.88;;;3.60;;
32838;SDS011;19182;41.820;12.808;2022-10-16T05:44:22;7.38;;;4.28;;
32838;SDS011;19182;41.820;12.808;2022-10-16T05:46:48;7.57;;;4.47;;
32838;SDS011;19182;41.820;12.808;2022-10-16T05:49:14;8.20;;;3.92;;
32838;SDS011;19182;41.820;12.808;2022-10-16T05:51:40;11.00;;;4.70;;
32838;SDS011;19182;41.820;12.808;2022-10-16T05:54:06;10.57;;;4.55;;
32838;SDS011;19182;41.820;12.808;2022-10-16T05:56:34;7.07;;;4.63;;
32838;SDS011;19182;41.820;12.808;2022-10-16T05:59:00;10.23;;;4.15;;
32838;SDS011;19182;41.820;12.808;2022-10-16T06:01:26;12.80;;;4.82;;
32838;SDS011;19182;41.820;12.808;2022-10-16T06:03:52;10.82;;;4.90;;
32838;SDS011;19182;41.820;12.808;2022-10-16T06:06:22;11.02;;;5.30;;
32838;SDS011;19182;41.820;12.808;2022-10-16T06:08:50;13.43;;;5.05;;
32838;SDS011;19182;41.820;12.808;2022-10-16T06:11:21;9.77;;;5.28;;
32838;SDS011;19182;41.820;12.808;2022-10-16T06:13:49;15.95;;;5.60;;
32838;SDS011;19182;41.820;12.808;2022-10-16T06:16:16;10.43;;;5.38;;
32838;SDS011;19182;41.820;12.808;2022-10-16T06:18:43;13.77;;;6.05;;
32838;SDS011;19182;41.820;12.808;2022-10-16T06:21:10;9.35;;;5.10;;
32838;SDS011;19182;41.820;12.808;2022-10-16T06:23:39;9.43;;;4.07;;
32838;SDS011;19182;41.820;12.808;2022-10-16T06:26:09;10.82;;;3.63;;
32838;SDS011;19182;41.820;12.808;2022-10-16T06:28:37;6.63;;;3.17;;
32838;SDS011;19182;41.820;12.808;2022-10-16T06:31:03;6.03;;;3.33;;
32838;SDS011;19182;41.820;12.808;2022-10-16T06:33:31;8.30;;;3.83;;
32838;SDS011;19182;41.820;12.808;2022-10-16T06:36:04;4.60;;;3.35;;
32838;SDS011;19182;41.820;12.808;2022-10-16T06:38:33;9.35;;;3.83;;
32838;SDS011;19182;41.820;12.808;2022-10-16T06:41:00;7.55;;;3.60;;
32838;SDS011;19182;41.820;12.808;2022-10-16T06:43:27;4.57;;;3.17;;
32838;SDS011;19182;41.820;12.808;2022-10-16T06:45:58;5.47;;;3.65;;
32838;SDS011;19182;41.820;12.808;2022-10-16T06:48:25;6.78;;;3.45;;
32838;SDS011;19182;41.820;12.808;2022-10-16T06:50:56;5.30;;;3.28;;
32838;SDS011;19182;41.820;12.808;2022-10-16T06:53:25;6.88;;;3.50;;
32838;SDS011;19182;41.820;12.808;2022-10-16T06:55:53;8.13;;;3.60;;
32838;SDS011;19182;41.820;12.808;2022-10-16T06:58:19;10.23;;;4.30;;
32838;SDS011;19182;41.820;12.808;2022-10-16T07:00:45;4.55;;;3.90;;
32838;SDS011;19182;41.820;12.808;2022-10-16T07:03:13;11.20;;;3.92;;
32838;SDS011;19182;41.820;12.808;2022-10-16T07:05:42;6.65;;;4.10;;
32838;SDS011;19182;41.820;12.808;2022-10-16T07:08:08;6.43;;;4.45;;
32838;SDS011;19182;41.820;12.808;2022-10-16T07:10:34;8.20;;;4.78;;
32838;SDS011;19182;41.820;12.808;2022-10-16T07:13:00;6.90;;;4.18;;
32838;SDS011;19182;41.820;12.808;2022-10-16T07:15:27;5.82;;;4.18;;
32838;SDS011;19182;41.820;12.808;2022-10-16T07:17:54;7.97;;;4.63;;
32838;SDS011;19182;41.820;12.808;2022-10-16T07:20:20;6.72;;;4.32;;
32838;SDS011;19182;41.820;12.808;2022-10-16T07:22:46;7.38;;;4.38;;
32838;SDS011;19182;41.820;12.808;2022-10-16T07:25:14;6.82;;;4.65;;
32838;SDS011;19182;41.820;12.808;2022-10-16T07:27:40;7.75;;;4.97;;
32838;SDS011;19182;41.820;12.808;2022-10-16T07:30:06;7.95;;;4.82;;
32838;SDS011;19182;41.820;12.808;2022-10-16T07:32:32;10.63;;;4.60;;
32838;SDS011;19182;41.820;12.808;2022-10-16T07:34:57;8.98;;;5.45;;
32838;SDS011;19182;41.820;12.808;2022-10-16T07:37:24;9.98;;;5.13;;
32838;SDS011;19182;41.820;12.808;2022-10-16T07:39:50;9.13;;;5.07;;
32838;SDS011;19182;41.820;12.808;2022-10-16T07:42:16;7.63;;;5.85;;
32838;SDS011;19182;41.820;12.808;2022-10-16T07:44:42;10.90;;;5.80;;
32838;SDS011;19182;41.820;12.808;2022-10-16T07:47:08;10.50;;;6.00;;
32838;SDS011;19182;41.820;12.808;2022-10-16T07:49:34;11.10;;;6.43;;
32838;SDS011;19182;41.820;12.808;2022-10-16T07:52:00;7.50;;;6.10;;
32838;SDS011;19182;41.820;12.808;2022-10-16T07:54:25;10.25;;;6.50;;
32838;SDS011;19182;41.820;12.808;2022-10-16T07:56:51;9.95;;;6.75;;
32838;SDS011;19182;41.820;12.808;2022-10-16T07:59:18;10.85;;;7.32;;
32838;SDS011;19182;41.820;12.808;2022-10-16T08:01:44;7.72;;;6.25;;
32838;SDS011;19182;41.820;12.808;2022-10-16T08:04:11;8.75;;;6.63;;
32838;SDS011;19182;41.820;12.808;2022-10-16T08:06:38;12.60;;;6.75;;
32838;SDS011;19182;41.820;12.808;2022-10-16T08:09:05;10.25;;;7.85;;
32838;SDS011;19182;41.820;12.808;2022-10-16T08:14:00;12.82;;;7.50;;
32838;SDS011;19182;41.820;12.808;2022-10-16T08:16:25;10.27;;;6.88;;
32838;SDS011;19182;41.820;12.808;2022-10-16T08:18:51;12.43;;;6.28;;
32838;SDS011;19182;41.820;12.808;2022-10-16T08:21:17;10.30;;;7.00;;
32838;SDS011;19182;41.820;12.808;2022-10-16T08:23:48;10.80;;;6.93;;
32838;SDS011;19182;41.820;12.808;2022-10-16T08:26:18;14.18;;;6.75;;
32838;SDS011;19182;41.820;12.808;2022-10-16T08:28:45;9.90;;;6.45;;
32838;SDS011;19182;41.820;12.808;2022-10-16T08:31:14;9.48;;;6.90;;
32838;SDS011;19182;41.820;12.808;2022-10-16T08:33:56;10.75;;;6.43;;
32838;SDS011;19182;41.820;12.808;2022-10-16T08:36:22;10.15;;;6.15;;
32838;SDS011;19182;41.820;12.808;2022-10-16T08:38:48;10.13;;;6.38;;
32838;SDS011;19182;41.820;12.808;2022-10-16T08:47:21;5.93;;;5.07;;
32838;SDS011;19182;41.820;12.808;2022-10-16T08:50:18;8.68;;;4.93;;
32838;SDS011;19182;41.820;12.808;2022-10-16T08:52:50;10.38;;;5.03;;
32838;SDS011;19182;41.820;12.808;2022-10-16T08:55:25;8.02;;;3.95;;
32838;SDS011;19182;41.820;12.808;2022-10-16T08:58:10;10.20;;;4.88;;
32838;SDS011;19182;41.820;12.808;2022-10-16T09:00:38;7.57;;;5.07;;
32838;SDS011;19182;41.820;12.808;2022-10-16T09:03:21;7.10;;;4.57;;
32838;SDS011;19182;41.820;12.808;2022-10-16T09:06:35;9.90;;;5.57;;
32838;SDS011;19182;41.820;12.808;2022-10-16T09:08:57;6.05;;;4.40;;
32838;SDS011;19182;41.820;12.808;2022-10-16T09:20:30;6.10;;;4.78;;
32838;SDS011;19182;41.820;12.808;2022-10-16T09:23:27;9.52;;;4.57;;
32838;SDS011;19182;41.820;12.808;2022-10-16T09:25:55;8.27;;;4.38;;
32838;SDS011;19182;41.820;12.808;2022-10-16T09:28:23;9.05;;;4.95;;
32838;SDS011;19182;41.820;12.808;2022-10-16T09:30:49;10.70;;;4.68;;
32838;SDS011;19182;41.820;12.808;2022-10-16T09:33:17;7.47;;;4.25;;
32838;SDS011;19182;41.820;12.808;2022-10-16T09:35:51;11.25;;;4.85;;
32838;SDS011;19182;41.820;12.808;2022-10-16T09:40:55;7.13;;;4.82;;
32838;SDS011;19182;41.820;12.808;2022-10-16T09:51:30;7.88;;;4.03;;
32838;SDS011;19182;41.820;12.808;2022-10-16T09:53:59;7.25;;;4.45;;
32838;SDS011;19182;41.820;12.808;2022-10-16T09:56:45;8.70;;;4.28;;
32838;SDS011;19182;41.820;12.808;2022-10-16T09:59:17;6.68;;;4.25;;
32838;SDS011;19182;41.820;12.808;2022-10-16T10:01:49;4.38;;;3.88;;
32838;SDS011;19182;41.820;12.808;2022-10-16T10:04:20;8.32;;;4.00;;
32838;SDS011;19182;41.820;12.808;2022-10-16T10:06:48;5.72;;;3.63;;
32838;SDS011;19182;41.820;12.808;2022-10-16T10:11:56;8.40;;;4.00;;
32838;SDS011;19182;41.820;12.808;2022-10-16T10:14:24;7.75;;;4.60;;
32838;SDS011;19182;41.820;12.808;2022-10-16T10:16:52;9.40;;;4.47;;
32838;SDS011;19182;41.820;12.808;2022-10-16T10:19:26;8.60;;;4.65;;
32838;SDS011;19182;41.820;12.808;2022-10-16T10:21:52;9.15;;;5.35;;
32838;SDS011;19182;41.820;12.808;2022-10-16T10:24:19;6.75;;;4.55;;
32838;SDS011;19182;41.820;12.808;2022-10-16T10:26:48;6.78;;;3.80;;
32838;SDS011;19182;41.820;12.808;2022-10-16T10:32:01;12.00;;;4.45;;
32838;SDS011;19182;41.820;12.808;2022-10-16T10:37:31;7.47;;;4.07;;
32838;SDS011;19182;41.820;12.808;2022-10-16T10:45:43;7.95;;;4.03;;
32838;SDS011;19182;41.820;12.808;2022-10-16T10:48:17;10.77;;;4.15;;
32838;SDS011;19182;41.820;12.808;2022-10-16T10:50:58;6.05;;;3.75;;
32838;SDS011;19182;41.820;12.808;2022-10-16T10:59:21;4.97;;;3.70;;
32838;SDS011;19182;41.820;12.808;2022-10-16T11:04:36;6.30;;;3.95;;
32838;SDS011;19182;41.820;12.808;2022-10-16T11:07:30;6.88;;;4.60;;
32838;SDS011;19182;41.820;12.808;2022-10-16T11:10:12;5.80;;;3.25;;
32838;SDS011;19182;41.820;12.808;2022-10-16T11:12:42;8.32;;;4.05;;
32838;SDS011;19182;41.820;12.808;2022-10-16T11:15:13;6.90;;;4.65;;
32838;SDS011;19182;41.820;12.808;2022-10-16T11:17:45;6.55;;;3.95;;
32838;SDS011;19182;41.820;12.808;2022-10-16T11:23:15;6.75;;;4.60;;
32838;SDS011;19182;41.820;12.808;2022-10-16T11:25:59;5.15;;;3.95;;
32838;SDS011;19182;41.820;12.808;2022-10-16T11:31:09;7.60;;;4.20;;
32838;SDS011;19182;41.820;12.808;2022-10-16T11:33:53;7.82;;;5.25;;
32838;SDS011;19182;41.820;12.808;2022-10-16T11:39:27;9.60;;;4.70;;
32838;SDS011;19182;41.820;12.808;2022-10-16T11:42:07;9.07;;;4.65;;
32838;SDS011;19182;41.820;12.808;2022-10-16T11:44:44;9.02;;;4.50;;
32838;SDS011;19182;41.820;12.808;2022-10-16T11:47:51;7.15;;;4.45;;
32838;SDS011;19182;41.820;12.808;2022-10-16T11:50:39;7.28;;;4.55;;
32838;SDS011;19182;41.820;12.808;2022-10-16T11:56:07;8.27;;;4.70;;
32838;SDS011;19182;41.820;12.808;2022-10-16T12:09:05;8.77;;;3.92;;
32838;SDS011;19182;41.820;12.808;2022-10-16T12:11:51;7.32;;;4.13;;
32838;SDS011;19182;41.820;12.808;2022-10-16T12:14:18;7.05;;;3.60;;
32838;SDS011;19182;41.820;12.808;2022-10-16T12:17:01;4.80;;;3.42;;
32838;SDS011;19182;41.820;12.808;2022-10-16T12:19:56;9.43;;;3.75;;
32838;SDS011;19182;41.820;12.808;2022-10-16T12:22:27;10.27;;;3.70;;
32838;SDS011;19182;41.820;12.808;2022-10-16T12:24:55;10.93;;;3.47;;
32838;SDS011;19182;41.820;12.808;2022-10-16T12:27:28;14.07;;;4.25;;
32838;SDS011;19182;41.820;12.808;2022-10-16T12:29:57;9.38;;;4.22;;
32838;SDS011;19182;41.820;12.808;2022-10-16T12:32:36;6.25;;;3.63;;
32838;SDS011;19182;41.820;12.808;2022-10-16T12:37:43;4.05;;;2.85;;
32838;SDS011;19182;41.820;12.808;2022-10-16T12:40:13;8.85;;;3.55;;
32838;SDS011;19182;41.820;12.808;2022-10-16T12:42:48;5.90;;;3.35;;
32838;SDS011;19182;41.820;12.808;2022-10-16T12:47:59;8.18;;;3.67;;
32838;SDS011;19182;41.820;12.808;2022-10-16T12:50:31;7.85;;;5.07;;
32838;SDS011;19182;41.820;12.808;2022-10-16T12:55:25;4.80;;;3.00;;
32838;SDS011;19182;41.820;12.808;2022-10-16T12:58:18;9.63;;;3.78;;
32838;SDS011;19182;41.820;12.808;2022-10-16T13:00:57;7.57;;;3.97;;
32838;SDS011;19182;41.820;12.808;2022-10-16T13:18:21;8.15;;;4.13;;
32838;SDS011;19182;41.820;12.808;2022-10-16T13:21:00;10.15;;;4.25;;
32838;SDS011;19182;41.820;12.808;2022-10-16T13:26:38;7.90;;;3.80;;
32838;SDS011;19182;41.820;12.808;2022-10-16T13:29:13;4.82;;;3.58;;
32838;SDS011;19182;41.820;12.808;2022-10-16T13:31:40;7.88;;;3.80;;
32838;SDS011;19182;41.820;12.808;2022-10-16T13:34:10;8.13;;;3.95;;
32838;SDS011;19182;41.820;12.808;2022-10-16T13:36:44;9.45;;;4.07;;
32838;SDS011;19182;41.820;12.808;2022-10-16T13:39:20;7.30;;;3.50;;
32838;SDS011;19182;41.820;12.808;2022-10-16T13:41:46;10.07;;;3.28;;
32838;SDS011;19182;41.820;12.808;2022-10-16T13:44:44;4.63;;;3.45;;
32838;SDS011;19182;41.820;12.808;2022-10-16T13:47:16;6.45;;;3.17;;
32838;SDS011;19182;41.820;12.808;2022-10-16T13:49:46;8.68;;;3.85;;
32838;SDS011;19182;41.820;12.808;2022-10-16T13:52:19;15.10;;;4.03;;
32838;SDS011;19182;41.820;12.808;2022-10-16T13:54:48;8.10;;;3.60;;
32838;SDS011;19182;41.820;12.808;2022-10-16T13:57:14;9.32;;;4.00;;
32838;SDS011;19182;41.820;12.808;2022-10-16T13:59:41;8.10;;;3.83;;
32838;SDS011;19182;41.820;12.808;2022-10-16T14:02:25;5.55;;;3.63;;
32838;SDS011;19182;41.820;12.808;2022-10-16T14:04:52;7.05;;;3.67;;
32838;SDS011;19182;41.820;12.808;2022-10-16T14:07:28;10.18;;;3.70;;
32838;SDS011;19182;41.820;12.808;2022-10-16T14:09:56;6.40;;;3.38;;
32838;SDS011;19182;41.820;12.808;2022-10-16T14:14:52;4.25;;;3.13;;
32838;SDS011;19182;41.820;12.808;2022-10-16T14:17:26;5.95;;;3.30;;
32838;SDS011;19182;41.820;12.808;2022-10-16T14:19:55;6.22;;;3.05;;
32838;SDS011;19182;41.820;12.808;2022-10-16T14:24:58;5.80;;;3.33;;
32838;SDS011;19182;41.820;12.808;2022-10-16T14:27:34;5.22;;;2.67;;
32838;SDS011;19182;41.820;12.808;2022-10-16T14:32:36;7.30;;;3.05;;
32838;SDS011;19182;41.820;12.808;2022-10-16T14:35:01;8.68;;;3.20;;
32838;SDS011;19182;41.820;12.808;2022-10-16T14:37:28;6.38;;;3.25;;
32838;SDS011;19182;41.820;12.808;2022-10-16T14:39:55;6.50;;;2.72;;
32838;SDS011;19182;41.820;12.808;2022-10-16T14:42:24;4.95;;;2.63;;
32838;SDS011;19182;41.820;12.808;2022-10-16T14:44:52;6.13;;;3.30;;
32838;SDS011;19182;41.820;12.808;2022-10-16T14:47:20;5.38;;;2.60;;
32838;SDS011;19182;41.820;12.808;2022-10-16T14:49:50;5.60;;;3.03;;
32838;SDS011;19182;41.820;12.808;2022-10-16T14:52:17;7.43;;;3.33;;
32838;SDS011;19182;41.820;12.808;2022-10-16T14:54:43;5.68;;;2.80;;
32838;SDS011;19182;41.820;12.808;2022-10-16T14:57:17;4.22;;;2.80;;
32838;SDS011;19182;41.820;12.808;2022-10-16T14:59:48;6.60;;;2.88;;
32838;SDS011;19182;41.820;12.808;2022-10-16T15:02:27;4.60;;;2.60;;
32838;SDS011;19182;41.820;12.808;2022-10-16T15:04:58;4.45;;;2.42;;
32838;SDS011;19182;41.820;12.808;2022-10-16T15:07:42;3.50;;;2.42;;
32838;SDS011;19182;41.820;12.808;2022-10-16T15:10:08;7.85;;;2.58;;
32838;SDS011;19182;41.820;12.808;2022-10-16T15:12:34;4.30;;;2.47;;
32838;SDS011;19182;41.820;12.808;2022-10-16T15:15:01;5.35;;;2.38;;
32838;SDS011;19182;41.820;12.808;2022-10-16T15:17:27;3.70;;;2.33;;
32838;SDS011;19182;41.820;12.808;2022-10-16T15:19:52;5.90;;;2.50;;
32838;SDS011;19182;41.820;12.808;2022-10-16T15:22:18;3.28;;;2.20;;
32838;SDS011;19182;41.820;12.808;2022-10-16T15:24:43;7.22;;;2.95;;
32838;SDS011;19182;41.820;12.808;2022-10-16T15:27:10;6.47;;;2.63;;
32838;SDS011;19182;41.820;12.808;2022-10-16T15:29:35;3.60;;;2.10;;
32838;SDS011;19182;41.820;12.808;2022-10-16T15:32:01;5.10;;;2.65;;
32838;SDS011;19182;41.820;12.808;2022-10-16T15:34:28;7.78;;;2.72;;
32838;SDS011;19182;41.820;12.808;2022-10-16T15:36:54;5.60;;;2.30;;
32838;SDS011;19182;41.820;12.808;2022-10-16T15:39:22;6.60;;;2.83;;
32838;SDS011;19182;41.820;12.808;2022-10-16T15:41:49;4.05;;;2.53;;
32838;SDS011;19182;41.820;12.808;2022-10-16T15:44:18;4.10;;;2.33;;
32838;SDS011;19182;41.820;12.808;2022-10-16T15:46:47;4.05;;;2.13;;
32838;SDS011;19182;41.820;12.808;2022-10-16T15:49:13;4.50;;;2.00;;
32838;SDS011;19182;41.820;12.808;2022-10-16T15:51:40;6.60;;;2.55;;
32838;SDS011;19182;41.820;12.808;2022-10-16T15:54:07;5.28;;;2.55;;
32838;SDS011;19182;41.820;12.808;2022-10-16T15:56:33;2.95;;;2.17;;
32838;SDS011;19182;41.820;12.808;2022-10-16T15:58:59;5.65;;;2.55;;
32838;SDS011;19182;41.820;12.808;2022-10-16T16:01:25;9.15;;;2.50;;
32838;SDS011;19182;41.820;12.808;2022-10-16T16:03:54;8.38;;;2.30;;
32838;SDS011;19182;41.820;12.808;2022-10-16T16:06:21;7.60;;;3.08;;
32838;SDS011;19182;41.820;12.808;2022-10-16T16:08:49;9.57;;;3.20;;
32838;SDS011;19182;41.820;12.808;2022-10-16T16:11:15;3.92;;;2.50;;
32838;SDS011;19182;41.820;12.808;2022-10-16T16:13:42;5.93;;;3.00;;
32838;SDS011;19182;41.820;12.808;2022-10-16T16:16:09;5.65;;;3.33;;
32838;SDS011;19182;41.820;12.808;2022-10-16T16:18:39;8.68;;;5.00;;
32838;SDS011;19182;41.820;12.808;2022-10-16T16:21:05;5.82;;;3.47;;
32838;SDS011;19182;41.820;12.808;2022-10-16T16:23:32;12.02;;;3.80;;
32838;SDS011;19182;41.820;12.808;2022-10-16T16:28:53;6.63;;;3.88;;
32838;SDS011;19182;41.820;12.808;2022-10-16T16:31:20;7.55;;;3.95;;
32838;SDS011;19182;41.820;12.808;2022-10-16T16:33:50;10.30;;;5.00;;
32838;SDS011;19182;41.820;12.808;2022-10-16T16:36:16;5.72;;;3.90;;
32838;SDS011;19182;41.820;12.808;2022-10-16T16:38:43;10.10;;;3.88;;
32838;SDS011;19182;41.820;12.808;2022-10-16T16:41:16;11.55;;;5.68;;
32838;SDS011;19182;41.820;12.808;2022-10-16T16:43:43;14.20;;;5.53;;
32838;SDS011;19182;41.820;12.808;2022-10-16T16:46:10;18.38;;;6.22;;
32838;SDS011;19182;41.820;12.808;2022-10-16T16:48:36;13.82;;;4.82;;
32838;SDS011;19182;41.820;12.808;2022-10-16T16:51:04;10.30;;;5.45;;
32838;SDS011;19182;41.820;12.808;2022-10-16T16:53:32;7.82;;;4.63;;
32838;SDS011;19182;41.820;12.808;2022-10-16T16:56:02;10.48;;;5.50;;
32838;SDS011;19182;41.820;12.808;2022-10-16T16:58:29;11.30;;;5.28;;